<?xml version="1.0" encoding="UTF-8" ?>
<gpx xmlns="http://www.topografix.com/GPX/1/1" version="1.1" creator="RouteGadget GPS Tracking" xmlns:xsi="http://www.w3.org/2001/XMLSchema-instance" xmlns:tp1="http://www.garmin.com/xmlschemas/TrackPointExtension/v1" xsi:schemaLocation="http://www.topografix.com/GPX/1/1 http://www.topografix.com/GPX/1/1/gpx.xsd http://www.garmin.com/xmlschemas/TrackPointExtension/v1 http://www.garmin.com/xmlschemas/TrackPointExtensionv1.xsd">
<trk>
<trkseg><trkpt lat="39.475479" lon="-8.216412">
<time>2021-10-07T12:13:31Z</time>
</trkpt>
<trkpt lat="39.475432" lon="-8.216418">
<time>2021-10-07T12:13:37Z</time>
</trkpt>
<trkpt lat="39.475357" lon="-8.216473">
<time>2021-10-07T12:13:38Z</time>
</trkpt>
<trkpt lat="39.475271" lon="-8.216556">
<time>2021-10-07T12:13:40Z</time>
</trkpt>
<trkpt lat="39.475161" lon="-8.216603">
<time>2021-10-07T12:13:42Z</time>
</trkpt>
<trkpt lat="39.475039" lon="-8.216634">
<time>2021-10-07T12:13:44Z</time>
</trkpt>
<trkpt lat="39.474983" lon="-8.216656">
<time>2021-10-07T12:13:45Z</time>
</trkpt>
<trkpt lat="39.474926" lon="-8.216681">
<time>2021-10-07T12:13:46Z</time>
</trkpt>
<trkpt lat="39.474867" lon="-8.216705">
<time>2021-10-07T12:13:47Z</time>
</trkpt>
<trkpt lat="39.474805" lon="-8.216725">
<time>2021-10-07T12:13:48Z</time>
</trkpt>
<trkpt lat="39.47468" lon="-8.216752">
<time>2021-10-07T12:13:50Z</time>
</trkpt>
<trkpt lat="39.474633" lon="-8.216774">
<time>2021-10-07T12:13:51Z</time>
</trkpt>
<trkpt lat="39.474558" lon="-8.216885">
<time>2021-10-07T12:13:53Z</time>
</trkpt>
<trkpt lat="39.474582" lon="-8.217038">
<time>2021-10-07T12:13:55Z</time>
</trkpt>
<trkpt lat="39.474701" lon="-8.217522">
<time>2021-10-07T12:14:00Z</time>
</trkpt>
<trkpt lat="39.474804" lon="-8.217858">
<time>2021-10-07T12:14:03Z</time>
</trkpt>
<trkpt lat="39.474884" lon="-8.218106">
<time>2021-10-07T12:14:05Z</time>
</trkpt>
<trkpt lat="39.475134" lon="-8.218869">
<time>2021-10-07T12:14:11Z</time>
</trkpt>
<trkpt lat="39.475168" lon="-8.218987">
<time>2021-10-07T12:14:12Z</time>
</trkpt>
<trkpt lat="39.475248" lon="-8.2192">
<time>2021-10-07T12:14:14Z</time>
</trkpt>
<trkpt lat="39.475349" lon="-8.219397">
<time>2021-10-07T12:14:16Z</time>
</trkpt>
<trkpt lat="39.475588" lon="-8.219836">
<time>2021-10-07T12:14:20Z</time>
</trkpt>
<trkpt lat="39.475659" lon="-8.219955">
<time>2021-10-07T12:14:21Z</time>
</trkpt>
<trkpt lat="39.475985" lon="-8.220545">
<time>2021-10-07T12:14:26Z</time>
</trkpt>
<trkpt lat="39.476111" lon="-8.220707">
<time>2021-10-07T12:14:28Z</time>
</trkpt>
<trkpt lat="39.476189" lon="-8.220762">
<time>2021-10-07T12:14:29Z</time>
</trkpt>
<trkpt lat="39.476275" lon="-8.220792">
<time>2021-10-07T12:14:30Z</time>
</trkpt>
<trkpt lat="39.476455" lon="-8.220817">
<time>2021-10-07T12:14:32Z</time>
</trkpt>
<trkpt lat="39.476745" lon="-8.220859">
<time>2021-10-07T12:14:35Z</time>
</trkpt>
<trkpt lat="39.476849" lon="-8.220891">
<time>2021-10-07T12:14:36Z</time>
</trkpt>
<trkpt lat="39.476954" lon="-8.220937">
<time>2021-10-07T12:14:37Z</time>
</trkpt>
<trkpt lat="39.477466" lon="-8.221248">
<time>2021-10-07T12:14:42Z</time>
</trkpt>
<trkpt lat="39.477617" lon="-8.221417">
<time>2021-10-07T12:14:44Z</time>
</trkpt>
<trkpt lat="39.477666" lon="-8.221509">
<time>2021-10-07T12:14:45Z</time>
</trkpt>
<trkpt lat="39.477689" lon="-8.2216">
<time>2021-10-07T12:14:46Z</time>
</trkpt>
<trkpt lat="39.477686" lon="-8.221678">
<time>2021-10-07T12:14:47Z</time>
</trkpt>
<trkpt lat="39.477668" lon="-8.221745">
<time>2021-10-07T12:14:48Z</time>
</trkpt>
<trkpt lat="39.477612" lon="-8.221874">
<time>2021-10-07T12:14:50Z</time>
</trkpt>
<trkpt lat="39.477596" lon="-8.221935">
<time>2021-10-07T12:14:51Z</time>
</trkpt>
<trkpt lat="39.477628" lon="-8.222019">
<time>2021-10-07T12:14:53Z</time>
</trkpt>
<trkpt lat="39.477771" lon="-8.222094">
<time>2021-10-07T12:14:56Z</time>
</trkpt>
<trkpt lat="39.477887" lon="-8.222173">
<time>2021-10-07T12:14:58Z</time>
</trkpt>
<trkpt lat="39.477988" lon="-8.222254">
<time>2021-10-07T12:15:00Z</time>
</trkpt>
<trkpt lat="39.478082" lon="-8.222331">
<time>2021-10-07T12:15:02Z</time>
</trkpt>
<trkpt lat="39.478176" lon="-8.222407">
<time>2021-10-07T12:15:04Z</time>
</trkpt>
<trkpt lat="39.478269" lon="-8.222489">
<time>2021-10-07T12:15:06Z</time>
</trkpt>
<trkpt lat="39.478349" lon="-8.222592">
<time>2021-10-07T12:15:08Z</time>
</trkpt>
<trkpt lat="39.47838" lon="-8.222646">
<time>2021-10-07T12:15:09Z</time>
</trkpt>
<trkpt lat="39.478589" lon="-8.222922">
<time>2021-10-07T12:15:15Z</time>
</trkpt>
<trkpt lat="39.478735" lon="-8.223086">
<time>2021-10-07T12:15:19Z</time>
</trkpt>
<trkpt lat="39.478802" lon="-8.223172">
<time>2021-10-07T12:15:21Z</time>
</trkpt>
<trkpt lat="39.478891" lon="-8.223316">
<time>2021-10-07T12:15:24Z</time>
</trkpt>
<trkpt lat="39.478978" lon="-8.223442">
<time>2021-10-07T12:15:27Z</time>
</trkpt>
<trkpt lat="39.479073" lon="-8.223596">
<time>2021-10-07T12:15:31Z</time>
</trkpt>
<trkpt lat="39.479168" lon="-8.223741">
<time>2021-10-07T12:15:35Z</time>
</trkpt>
<trkpt lat="39.479208" lon="-8.2239">
<time>2021-10-07T12:15:39Z</time>
</trkpt>
<trkpt lat="39.479131" lon="-8.223993">
<time>2021-10-07T12:15:42Z</time>
</trkpt>
<trkpt lat="39.479017" lon="-8.224062">
<time>2021-10-07T12:15:45Z</time>
</trkpt>
<trkpt lat="39.478936" lon="-8.224131">
<time>2021-10-07T12:15:47Z</time>
</trkpt>
<trkpt lat="39.478707" lon="-8.224361">
<time>2021-10-07T12:15:52Z</time>
</trkpt>
<trkpt lat="39.478301" lon="-8.224777">
<time>2021-10-07T12:16:00Z</time>
</trkpt>
<trkpt lat="39.477865" lon="-8.225268">
<time>2021-10-07T12:16:08Z</time>
</trkpt>
<trkpt lat="39.477526" lon="-8.225635">
<time>2021-10-07T12:16:14Z</time>
</trkpt>
<trkpt lat="39.477356" lon="-8.225808">
<time>2021-10-07T12:16:17Z</time>
</trkpt>
<trkpt lat="39.476946" lon="-8.226199">
<time>2021-10-07T12:16:24Z</time>
</trkpt>
<trkpt lat="39.476886" lon="-8.226252">
<time>2021-10-07T12:16:25Z</time>
</trkpt>
<trkpt lat="39.476391" lon="-8.226712">
<time>2021-10-07T12:16:33Z</time>
</trkpt>
<trkpt lat="39.476263" lon="-8.226829">
<time>2021-10-07T12:16:35Z</time>
</trkpt>
<trkpt lat="39.475924" lon="-8.227092">
<time>2021-10-07T12:16:40Z</time>
</trkpt>
<trkpt lat="39.475846" lon="-8.227111">
<time>2021-10-07T12:16:41Z</time>
</trkpt>
<trkpt lat="39.475766" lon="-8.227118">
<time>2021-10-07T12:16:42Z</time>
</trkpt>
<trkpt lat="39.475448" lon="-8.22717">
<time>2021-10-07T12:16:46Z</time>
</trkpt>
<trkpt lat="39.474921" lon="-8.227409">
<time>2021-10-07T12:16:53Z</time>
</trkpt>
<trkpt lat="39.474455" lon="-8.227633">
<time>2021-10-07T12:16:59Z</time>
</trkpt>
<trkpt lat="39.473949" lon="-8.227927">
<time>2021-10-07T12:17:06Z</time>
</trkpt>
<trkpt lat="39.473478" lon="-8.228278">
<time>2021-10-07T12:17:13Z</time>
</trkpt>
<trkpt lat="39.473078" lon="-8.228567">
<time>2021-10-07T12:17:19Z</time>
</trkpt>
<trkpt lat="39.472889" lon="-8.228704">
<time>2021-10-07T12:17:22Z</time>
</trkpt>
<trkpt lat="39.472834" lon="-8.228751">
<time>2021-10-07T12:17:23Z</time>
</trkpt>
<trkpt lat="39.472791" lon="-8.228802">
<time>2021-10-07T12:17:24Z</time>
</trkpt>
<trkpt lat="39.472786" lon="-8.228866">
<time>2021-10-07T12:17:25Z</time>
</trkpt>
<trkpt lat="39.472803" lon="-8.228929">
<time>2021-10-07T12:17:26Z</time>
</trkpt>
<trkpt lat="39.472829" lon="-8.228987">
<time>2021-10-07T12:17:27Z</time>
</trkpt>
<trkpt lat="39.472933" lon="-8.229142">
<time>2021-10-07T12:17:30Z</time>
</trkpt>
<trkpt lat="39.473003" lon="-8.2292">
<time>2021-10-07T12:17:32Z</time>
</trkpt>
<trkpt lat="39.473044" lon="-8.229195">
<time>2021-10-07T12:17:33Z</time>
</trkpt>
<trkpt lat="39.473096" lon="-8.22917">
<time>2021-10-07T12:17:34Z</time>
</trkpt>
<trkpt lat="39.473266" lon="-8.229088">
<time>2021-10-07T12:17:37Z</time>
</trkpt>
<trkpt lat="39.473322" lon="-8.229058">
<time>2021-10-07T12:17:38Z</time>
</trkpt>
<trkpt lat="39.473435" lon="-8.228977">
<time>2021-10-07T12:17:40Z</time>
</trkpt>
<trkpt lat="39.473491" lon="-8.228922">
<time>2021-10-07T12:17:41Z</time>
</trkpt>
<trkpt lat="39.473715" lon="-8.228747">
<time>2021-10-07T12:17:45Z</time>
</trkpt>
<trkpt lat="39.47384" lon="-8.228711">
<time>2021-10-07T12:17:47Z</time>
</trkpt>
<trkpt lat="39.473955" lon="-8.22874">
<time>2021-10-07T12:17:49Z</time>
</trkpt>
<trkpt lat="39.474005" lon="-8.228782">
<time>2021-10-07T12:17:50Z</time>
</trkpt>
<trkpt lat="39.474048" lon="-8.228833">
<time>2021-10-07T12:17:51Z</time>
</trkpt>
<trkpt lat="39.474163" lon="-8.229006">
<time>2021-10-07T12:17:54Z</time>
</trkpt>
<trkpt lat="39.47439" lon="-8.229411">
<time>2021-10-07T12:18:01Z</time>
</trkpt>
<trkpt lat="39.474402" lon="-8.229463">
<time>2021-10-07T12:18:02Z</time>
</trkpt>
<trkpt lat="39.474437" lon="-8.229524">
<time>2021-10-07T12:18:04Z</time>
</trkpt>
<trkpt lat="39.474466" lon="-8.229525">
<time>2021-10-07T12:18:05Z</time>
</trkpt>
<trkpt lat="39.474685" lon="-8.229455">
<time>2021-10-07T12:18:10Z</time>
</trkpt>
<trkpt lat="39.475014" lon="-8.229342">
<time>2021-10-07T12:18:16Z</time>
</trkpt>
<trkpt lat="39.475128" lon="-8.229321">
<time>2021-10-07T12:18:18Z</time>
</trkpt>
<trkpt lat="39.475232" lon="-8.229375">
<time>2021-10-07T12:18:20Z</time>
</trkpt>
<trkpt lat="39.475269" lon="-8.229422">
<time>2021-10-07T12:18:21Z</time>
</trkpt>
<trkpt lat="39.475297" lon="-8.229474">
<time>2021-10-07T12:18:22Z</time>
</trkpt>
<trkpt lat="39.475347" lon="-8.229633">
<time>2021-10-07T12:18:25Z</time>
</trkpt>
<trkpt lat="39.475458" lon="-8.229953">
<time>2021-10-07T12:18:32Z</time>
</trkpt>
<trkpt lat="39.475523" lon="-8.229997">
<time>2021-10-07T12:18:34Z</time>
</trkpt>
<trkpt lat="39.475566" lon="-8.230003">
<time>2021-10-07T12:18:35Z</time>
</trkpt>
<trkpt lat="39.475885" lon="-8.229966">
<time>2021-10-07T12:18:42Z</time>
</trkpt>
<trkpt lat="39.476016" lon="-8.22992">
<time>2021-10-07T12:18:45Z</time>
</trkpt>
<trkpt lat="39.476142" lon="-8.229837">
<time>2021-10-07T12:18:48Z</time>
</trkpt>
<trkpt lat="39.476418" lon="-8.229608">
<time>2021-10-07T12:18:55Z</time>
</trkpt>
<trkpt lat="39.476458" lon="-8.229591">
<time>2021-10-07T12:18:56Z</time>
</trkpt>
<trkpt lat="39.476537" lon="-8.229574">
<time>2021-10-07T12:18:58Z</time>
</trkpt>
<trkpt lat="39.476654" lon="-8.22958">
<time>2021-10-07T12:19:01Z</time>
</trkpt>
<trkpt lat="39.476934" lon="-8.229595">
<time>2021-10-07T12:19:09Z</time>
</trkpt>
<trkpt lat="39.477215" lon="-8.229543">
<time>2021-10-07T12:19:18Z</time>
</trkpt>
<trkpt lat="39.477591" lon="-8.229478">
<time>2021-10-07T12:19:32Z</time>
</trkpt>
<trkpt lat="39.477788" lon="-8.229418">
<time>2021-10-07T12:19:41Z</time>
</trkpt>
<trkpt lat="39.478012" lon="-8.229397">
<time>2021-10-07T12:19:51Z</time>
</trkpt>
<trkpt lat="39.478213" lon="-8.229427">
<time>2021-10-07T12:20:00Z</time>
</trkpt>
<trkpt lat="39.478308" lon="-8.229323">
<time>2021-10-07T12:20:05Z</time>
</trkpt>
<trkpt lat="39.478334" lon="-8.229156">
<time>2021-10-07T12:20:08Z</time>
</trkpt>
<trkpt lat="39.478429" lon="-8.228826">
<time>2021-10-07T12:20:12Z</time>
</trkpt>
<trkpt lat="39.478541" lon="-8.228537">
<time>2021-10-07T12:20:15Z</time>
</trkpt>
<trkpt lat="39.478612" lon="-8.228345">
<time>2021-10-07T12:20:17Z</time>
</trkpt>
<trkpt lat="39.478721" lon="-8.228057">
<time>2021-10-07T12:20:20Z</time>
</trkpt>
<trkpt lat="39.478759" lon="-8.22796">
<time>2021-10-07T12:20:21Z</time>
</trkpt>
<trkpt lat="39.478833" lon="-8.22776">
<time>2021-10-07T12:20:23Z</time>
</trkpt>
<trkpt lat="39.478872" lon="-8.227664">
<time>2021-10-07T12:20:24Z</time>
</trkpt>
<trkpt lat="39.478914" lon="-8.227573">
<time>2021-10-07T12:20:25Z</time>
</trkpt>
<trkpt lat="39.478993" lon="-8.227398">
<time>2021-10-07T12:20:27Z</time>
</trkpt>
<trkpt lat="39.479051" lon="-8.227239">
<time>2021-10-07T12:20:29Z</time>
</trkpt>
<trkpt lat="39.47907" lon="-8.227165">
<time>2021-10-07T12:20:30Z</time>
</trkpt>
<trkpt lat="39.479078" lon="-8.227096">
<time>2021-10-07T12:20:31Z</time>
</trkpt>
<trkpt lat="39.479034" lon="-8.226951">
<time>2021-10-07T12:20:33Z</time>
</trkpt>
<trkpt lat="39.478867" lon="-8.226494">
<time>2021-10-07T12:20:38Z</time>
</trkpt>
<trkpt lat="39.478819" lon="-8.226296">
<time>2021-10-07T12:20:40Z</time>
</trkpt>
<trkpt lat="39.478818" lon="-8.226213">
<time>2021-10-07T12:20:41Z</time>
</trkpt>
<trkpt lat="39.478833" lon="-8.226145">
<time>2021-10-07T12:20:42Z</time>
</trkpt>
<trkpt lat="39.478897" lon="-8.226028">
<time>2021-10-07T12:20:44Z</time>
</trkpt>
<trkpt lat="39.479201" lon="-8.225531">
<time>2021-10-07T12:20:52Z</time>
</trkpt>
<trkpt lat="39.479368" lon="-8.225287">
<time>2021-10-07T12:20:56Z</time>
</trkpt>
<trkpt lat="39.479528" lon="-8.225037">
<time>2021-10-07T12:21:00Z</time>
</trkpt>
<trkpt lat="39.479644" lon="-8.224848">
<time>2021-10-07T12:21:03Z</time>
</trkpt>
<trkpt lat="39.479681" lon="-8.224714">
<time>2021-10-07T12:21:05Z</time>
</trkpt>
<trkpt lat="39.479665" lon="-8.224639">
<time>2021-10-07T12:21:06Z</time>
</trkpt>
<trkpt lat="39.479638" lon="-8.224563">
<time>2021-10-07T12:21:07Z</time>
</trkpt>
<trkpt lat="39.479528" lon="-8.224336">
<time>2021-10-07T12:21:10Z</time>
</trkpt>
<trkpt lat="39.479267" lon="-8.223922">
<time>2021-10-07T12:21:16Z</time>
</trkpt>
<trkpt lat="39.478967" lon="-8.223456">
<time>2021-10-07T12:21:22Z</time>
</trkpt>
<trkpt lat="39.478597" lon="-8.222964">
<time>2021-10-07T12:21:28Z</time>
</trkpt>
<trkpt lat="39.478409" lon="-8.222749">
<time>2021-10-07T12:21:31Z</time>
</trkpt>
<trkpt lat="39.47832" lon="-8.222581">
<time>2021-10-07T12:21:33Z</time>
</trkpt>
<trkpt lat="39.478269" lon="-8.222504">
<time>2021-10-07T12:21:34Z</time>
</trkpt>
<trkpt lat="39.478095" lon="-8.222329">
<time>2021-10-07T12:21:37Z</time>
</trkpt>
<trkpt lat="39.477783" lon="-8.222104">
<time>2021-10-07T12:21:42Z</time>
</trkpt>
<trkpt lat="39.477655" lon="-8.222038">
<time>2021-10-07T12:21:44Z</time>
</trkpt>
<trkpt lat="39.477601" lon="-8.221996">
<time>2021-10-07T12:21:45Z</time>
</trkpt>
<trkpt lat="39.477558" lon="-8.221897">
<time>2021-10-07T12:21:47Z</time>
</trkpt>
<trkpt lat="39.47757" lon="-8.221717">
<time>2021-10-07T12:21:51Z</time>
</trkpt>
<trkpt lat="39.47757" lon="-8.221538">
<time>2021-10-07T12:21:54Z</time>
</trkpt>
<trkpt lat="39.477543" lon="-8.221484">
<time>2021-10-07T12:21:55Z</time>
</trkpt>
<trkpt lat="39.477471" lon="-8.221384">
<time>2021-10-07T12:21:57Z</time>
</trkpt>
<trkpt lat="39.477347" lon="-8.221266">
<time>2021-10-07T12:22:00Z</time>
</trkpt>
<trkpt lat="39.477123" lon="-8.221102">
<time>2021-10-07T12:22:06Z</time>
</trkpt>
<trkpt lat="39.476985" lon="-8.221013">
<time>2021-10-07T12:22:11Z</time>
</trkpt>
<trkpt lat="39.476963" lon="-8.220998">
<time>2021-10-07T12:22:12Z</time>
</trkpt>
<trkpt lat="39.476899" lon="-8.220953">
<time>2021-10-07T12:22:15Z</time>
</trkpt>
<trkpt lat="39.476838" lon="-8.220916">
<time>2021-10-07T12:22:18Z</time>
</trkpt>
<trkpt lat="39.476818" lon="-8.220905">
<time>2021-10-07T12:22:19Z</time>
</trkpt>
<trkpt lat="39.47672" lon="-8.220863">
<time>2021-10-07T12:22:24Z</time>
</trkpt>
<trkpt lat="39.476619" lon="-8.220834">
<time>2021-10-07T12:22:29Z</time>
</trkpt>
<trkpt lat="39.476361" lon="-8.220812">
<time>2021-10-07T12:22:40Z</time>
</trkpt>
<trkpt lat="39.476132" lon="-8.220731">
<time>2021-10-07T12:22:49Z</time>
</trkpt>
<trkpt lat="39.476015" lon="-8.220604">
<time>2021-10-07T12:22:55Z</time>
</trkpt>
<trkpt lat="39.475992" lon="-8.220561">
<time>2021-10-07T12:22:57Z</time>
</trkpt>
<trkpt lat="39.475914" lon="-8.220389">
<time>2021-10-07T12:23:04Z</time>
</trkpt>
<trkpt lat="39.475853" lon="-8.220247">
<time>2021-10-07T12:23:10Z</time>
</trkpt>
<trkpt lat="39.475756" lon="-8.220049">
<time>2021-10-07T12:23:18Z</time>
</trkpt>
<trkpt lat="39.475668" lon="-8.219909">
<time>2021-10-07T12:23:25Z</time>
</trkpt>
<trkpt lat="39.475565" lon="-8.219747">
<time>2021-10-07T12:23:33Z</time>
</trkpt>
<trkpt lat="39.475481" lon="-8.219593">
<time>2021-10-07T12:23:41Z</time>
</trkpt>
<trkpt lat="39.475419" lon="-8.219491">
<time>2021-10-07T12:23:46Z</time>
</trkpt>
<trkpt lat="39.475314" lon="-8.219311">
<time>2021-10-07T12:23:55Z</time>
</trkpt>
<trkpt lat="39.475197" lon="-8.219052">
<time>2021-10-07T12:24:05Z</time>
</trkpt>
<trkpt lat="39.475103" lon="-8.218767">
<time>2021-10-07T12:24:12Z</time>
</trkpt>
<trkpt lat="39.475012" lon="-8.218502">
<time>2021-10-07T12:24:18Z</time>
</trkpt>
<trkpt lat="39.474998" lon="-8.218458">
<time>2021-10-07T12:24:19Z</time>
</trkpt>
<trkpt lat="39.474856" lon="-8.218054">
<time>2021-10-07T12:24:29Z</time>
</trkpt>
<trkpt lat="39.47483" lon="-8.217981">
<time>2021-10-07T12:24:31Z</time>
</trkpt>
<trkpt lat="39.474721" lon="-8.217634">
<time>2021-10-07T12:24:41Z</time>
</trkpt>
<trkpt lat="39.474644" lon="-8.21732">
<time>2021-10-07T12:24:50Z</time>
</trkpt>
<trkpt lat="39.47457" lon="-8.217007">
<time>2021-10-07T12:24:58Z</time>
</trkpt>
<trkpt lat="39.474465" lon="-8.216551">
<time>2021-10-07T12:25:09Z</time>
</trkpt>
<trkpt lat="39.474363" lon="-8.216077">
<time>2021-10-07T12:25:19Z</time>
</trkpt>
<trkpt lat="39.474367" lon="-8.215704">
<time>2021-10-07T12:25:26Z</time>
</trkpt>
<trkpt lat="39.474393" lon="-8.215661">
<time>2021-10-07T12:25:27Z</time>
</trkpt>
<trkpt lat="39.474466" lon="-8.215599">
<time>2021-10-07T12:25:29Z</time>
</trkpt>
<trkpt lat="39.474505" lon="-8.215566">
<time>2021-10-07T12:25:30Z</time>
</trkpt>
<trkpt lat="39.474547" lon="-8.215538">
<time>2021-10-07T12:25:31Z</time>
</trkpt>
<trkpt lat="39.474686" lon="-8.215518">
<time>2021-10-07T12:25:34Z</time>
</trkpt>
<trkpt lat="39.475105" lon="-8.215459">
<time>2021-10-07T12:25:43Z</time>
</trkpt>
<trkpt lat="39.475313" lon="-8.215411">
<time>2021-10-07T12:25:47Z</time>
</trkpt>
<trkpt lat="39.475422" lon="-8.215392">
<time>2021-10-07T12:25:49Z</time>
</trkpt>
<trkpt lat="39.475477" lon="-8.215376">
<time>2021-10-07T12:25:50Z</time>
</trkpt>
<trkpt lat="39.47582" lon="-8.215261">
<time>2021-10-07T12:25:56Z</time>
</trkpt>
<trkpt lat="39.475863" lon="-8.215225">
<time>2021-10-07T12:25:57Z</time>
</trkpt>
<trkpt lat="39.475977" lon="-8.215117">
<time>2021-10-07T12:26:00Z</time>
</trkpt>
<trkpt lat="39.476018" lon="-8.215096">
<time>2021-10-07T12:26:01Z</time>
</trkpt>
<trkpt lat="39.476103" lon="-8.215043">
<time>2021-10-07T12:26:03Z</time>
</trkpt>
<trkpt lat="39.476267" lon="-8.214899">
<time>2021-10-07T12:26:07Z</time>
</trkpt>
<trkpt lat="39.476629" lon="-8.214569">
<time>2021-10-07T12:26:15Z</time>
</trkpt>
<trkpt lat="39.476971" lon="-8.214199">
<time>2021-10-07T12:26:22Z</time>
</trkpt>
<trkpt lat="39.477145" lon="-8.213928">
<time>2021-10-07T12:26:26Z</time>
</trkpt>
<trkpt lat="39.477247" lon="-8.213804">
<time>2021-10-07T12:26:28Z</time>
</trkpt>
<trkpt lat="39.477587" lon="-8.213524">
<time>2021-10-07T12:26:34Z</time>
</trkpt>
<trkpt lat="39.477726" lon="-8.213444">
<time>2021-10-07T12:26:37Z</time>
</trkpt>
<trkpt lat="39.47775" lon="-8.213407">
<time>2021-10-07T12:26:38Z</time>
</trkpt>
<trkpt lat="39.4778" lon="-8.213262">
<time>2021-10-07T12:26:41Z</time>
</trkpt>
<trkpt lat="39.477827" lon="-8.213212">
<time>2021-10-07T12:26:42Z</time>
</trkpt>
<trkpt lat="39.478052" lon="-8.21289">
<time>2021-10-07T12:26:48Z</time>
</trkpt>
<trkpt lat="39.478267" lon="-8.212604">
<time>2021-10-07T12:26:53Z</time>
</trkpt>
<trkpt lat="39.478362" lon="-8.212491">
<time>2021-10-07T12:26:55Z</time>
</trkpt>
<trkpt lat="39.478732" lon="-8.212024">
<time>2021-10-07T12:27:02Z</time>
</trkpt>
<trkpt lat="39.478983" lon="-8.211647">
<time>2021-10-07T12:27:06Z</time>
</trkpt>
<trkpt lat="39.479048" lon="-8.211545">
<time>2021-10-07T12:27:07Z</time>
</trkpt>
<trkpt lat="39.479251" lon="-8.211237">
<time>2021-10-07T12:27:10Z</time>
</trkpt>
<trkpt lat="39.479524" lon="-8.21081">
<time>2021-10-07T12:27:14Z</time>
</trkpt>
<trkpt lat="39.479595" lon="-8.210696">
<time>2021-10-07T12:27:15Z</time>
</trkpt>
<trkpt lat="39.479668" lon="-8.210576">
<time>2021-10-07T12:27:16Z</time>
</trkpt>
<trkpt lat="39.479821" lon="-8.210328">
<time>2021-10-07T12:27:18Z</time>
</trkpt>
<trkpt lat="39.479894" lon="-8.210206">
<time>2021-10-07T12:27:19Z</time>
</trkpt>
<trkpt lat="39.479957" lon="-8.210097">
<time>2021-10-07T12:27:20Z</time>
</trkpt>
<trkpt lat="39.480061" lon="-8.209949">
<time>2021-10-07T12:27:22Z</time>
</trkpt>
<trkpt lat="39.480106" lon="-8.209931">
<time>2021-10-07T12:27:23Z</time>
</trkpt>
<trkpt lat="39.480145" lon="-8.209944">
<time>2021-10-07T12:27:24Z</time>
</trkpt>
<trkpt lat="39.48017" lon="-8.209977">
<time>2021-10-07T12:27:25Z</time>
</trkpt>
<trkpt lat="39.480179" lon="-8.21002">
<time>2021-10-07T12:27:26Z</time>
</trkpt>
<trkpt lat="39.480169" lon="-8.210106">
<time>2021-10-07T12:27:28Z</time>
</trkpt>
<trkpt lat="39.480155" lon="-8.210189">
<time>2021-10-07T12:27:30Z</time>
</trkpt>
<trkpt lat="39.480148" lon="-8.210228">
<time>2021-10-07T12:27:31Z</time>
</trkpt>
<trkpt lat="39.480144" lon="-8.210303">
<time>2021-10-07T12:27:33Z</time>
</trkpt>
<trkpt lat="39.480148" lon="-8.210339">
<time>2021-10-07T12:27:34Z</time>
</trkpt>
<trkpt lat="39.480156" lon="-8.210374">
<time>2021-10-07T12:27:35Z</time>
</trkpt>
<trkpt lat="39.480181" lon="-8.210442">
<time>2021-10-07T12:27:37Z</time>
</trkpt>
<trkpt lat="39.480245" lon="-8.210522">
<time>2021-10-07T12:27:40Z</time>
</trkpt>
<trkpt lat="39.480345" lon="-8.210618">
<time>2021-10-07T12:27:44Z</time>
</trkpt>
<trkpt lat="39.480424" lon="-8.210732">
<time>2021-10-07T12:27:48Z</time>
</trkpt>
<trkpt lat="39.48044" lon="-8.210763">
<time>2021-10-07T12:27:49Z</time>
</trkpt>
<trkpt lat="39.480479" lon="-8.210856">
<time>2021-10-07T12:27:52Z</time>
</trkpt>
<trkpt lat="39.480503" lon="-8.210913">
<time>2021-10-07T12:27:54Z</time>
</trkpt>
<trkpt lat="39.48053" lon="-8.210946">
<time>2021-10-07T12:27:56Z</time>
</trkpt>
<trkpt lat="39.480626" lon="-8.210905">
<time>2021-10-07T12:27:59Z</time>
</trkpt>
<trkpt lat="39.480699" lon="-8.210861">
<time>2021-10-07T12:28:03Z</time>
</trkpt>
<trkpt lat="39.480738" lon="-8.210845">
<time>2021-10-07T12:28:10Z</time>
</trkpt>
<trkpt lat="39.480763" lon="-8.210834">
<time>2021-10-07T12:28:12Z</time>
</trkpt>
<trkpt lat="39.480855" lon="-8.210819">
<time>2021-10-07T12:28:20Z</time>
</trkpt>
<trkpt lat="39.48099" lon="-8.210811">
<time>2021-10-07T12:28:29Z</time>
</trkpt>
<trkpt lat="39.481028" lon="-8.210806">
<time>2021-10-07T12:28:32Z</time>
</trkpt>
<trkpt lat="39.481072" lon="-8.210807">
<time>2021-10-07T12:28:36Z</time>
</trkpt>
<trkpt lat="39.48113" lon="-8.210829">
<time>2021-10-07T12:28:41Z</time>
</trkpt>
<trkpt lat="39.481178" lon="-8.210832">
<time>2021-10-07T12:28:45Z</time>
</trkpt>
<trkpt lat="39.481186" lon="-8.210787">
<time>2021-10-07T12:28:48Z</time>
</trkpt>
<trkpt lat="39.481212" lon="-8.210637">
<time>2021-10-07T12:28:53Z</time>
</trkpt>
<trkpt lat="39.481261" lon="-8.210452">
<time>2021-10-07T12:28:57Z</time>
</trkpt>
<trkpt lat="39.481266" lon="-8.210395">
<time>2021-10-07T12:28:58Z</time>
</trkpt>
<trkpt lat="39.481317" lon="-8.210312">
<time>2021-10-07T12:29:02Z</time>
</trkpt>
<trkpt lat="39.481345" lon="-8.210389">
<time>2021-10-07T12:29:05Z</time>
</trkpt>
<trkpt lat="39.481428" lon="-8.210686">
<time>2021-10-07T12:29:14Z</time>
</trkpt>
<trkpt lat="39.481506" lon="-8.210887">
<time>2021-10-07T12:29:22Z</time>
</trkpt>
<trkpt lat="39.481671" lon="-8.21116">
<time>2021-10-07T12:29:33Z</time>
</trkpt>
<trkpt lat="39.481781" lon="-8.211324">
<time>2021-10-07T12:29:40Z</time>
</trkpt>
<trkpt lat="39.481964" lon="-8.211566">
<time>2021-10-07T12:29:50Z</time>
</trkpt>
<trkpt lat="39.482122" lon="-8.211777">
<time>2021-10-07T12:29:58Z</time>
</trkpt>
<trkpt lat="39.482297" lon="-8.211986">
<time>2021-10-07T12:30:07Z</time>
</trkpt>
<trkpt lat="39.482468" lon="-8.212139">
<time>2021-10-07T12:30:16Z</time>
</trkpt>
<trkpt lat="39.482681" lon="-8.212407">
<time>2021-10-07T12:30:27Z</time>
</trkpt>
<trkpt lat="39.48297" lon="-8.212749">
<time>2021-10-07T12:30:41Z</time>
</trkpt>
<trkpt lat="39.483205" lon="-8.213009">
<time>2021-10-07T12:30:51Z</time>
</trkpt>
<trkpt lat="39.483391" lon="-8.213263">
<time>2021-10-07T12:30:59Z</time>
</trkpt>
<trkpt lat="39.483488" lon="-8.213472">
<time>2021-10-07T12:31:04Z</time>
</trkpt>
<trkpt lat="39.483585" lon="-8.213446">
<time>2021-10-07T12:31:07Z</time>
</trkpt>
<trkpt lat="39.483777" lon="-8.213278">
<time>2021-10-07T12:31:12Z</time>
</trkpt>
<trkpt lat="39.484013" lon="-8.213159">
<time>2021-10-07T12:31:17Z</time>
</trkpt>
<trkpt lat="39.484062" lon="-8.213143">
<time>2021-10-07T12:31:18Z</time>
</trkpt>
<trkpt lat="39.484494" lon="-8.213034">
<time>2021-10-07T12:31:27Z</time>
</trkpt>
<trkpt lat="39.48495" lon="-8.212894">
<time>2021-10-07T12:31:36Z</time>
</trkpt>
<trkpt lat="39.484993" lon="-8.212865">
<time>2021-10-07T12:31:37Z</time>
</trkpt>
<trkpt lat="39.485071" lon="-8.21279">
<time>2021-10-07T12:31:39Z</time>
</trkpt>
<trkpt lat="39.485098" lon="-8.212745">
<time>2021-10-07T12:31:40Z</time>
</trkpt>
<trkpt lat="39.485112" lon="-8.212702">
<time>2021-10-07T12:31:41Z</time>
</trkpt>
<trkpt lat="39.485119" lon="-8.212596">
<time>2021-10-07T12:31:43Z</time>
</trkpt>
<trkpt lat="39.485118" lon="-8.212473">
<time>2021-10-07T12:31:45Z</time>
</trkpt>
<trkpt lat="39.485121" lon="-8.21234">
<time>2021-10-07T12:31:47Z</time>
</trkpt>
<trkpt lat="39.485131" lon="-8.212208">
<time>2021-10-07T12:31:49Z</time>
</trkpt>
<trkpt lat="39.485132" lon="-8.212144">
<time>2021-10-07T12:31:50Z</time>
</trkpt>
<trkpt lat="39.485161" lon="-8.211877">
<time>2021-10-07T12:31:54Z</time>
</trkpt>
<trkpt lat="39.485211" lon="-8.211783">
<time>2021-10-07T12:31:56Z</time>
</trkpt>
<trkpt lat="39.48525" lon="-8.211772">
<time>2021-10-07T12:31:57Z</time>
</trkpt>
<trkpt lat="39.485536" lon="-8.211773">
<time>2021-10-07T12:32:03Z</time>
</trkpt>
<trkpt lat="39.48593" lon="-8.211827">
<time>2021-10-07T12:32:11Z</time>
</trkpt>
<trkpt lat="39.486035" lon="-8.211842">
<time>2021-10-07T12:32:13Z</time>
</trkpt>
<trkpt lat="39.48614" lon="-8.211886">
<time>2021-10-07T12:32:15Z</time>
</trkpt>
<trkpt lat="39.486193" lon="-8.211917">
<time>2021-10-07T12:32:16Z</time>
</trkpt>
<trkpt lat="39.486306" lon="-8.211967">
<time>2021-10-07T12:32:18Z</time>
</trkpt>
<trkpt lat="39.486428" lon="-8.211987">
<time>2021-10-07T12:32:20Z</time>
</trkpt>
<trkpt lat="39.486552" lon="-8.211964">
<time>2021-10-07T12:32:22Z</time>
</trkpt>
<trkpt lat="39.486675" lon="-8.211907">
<time>2021-10-07T12:32:24Z</time>
</trkpt>
<trkpt lat="39.486997" lon="-8.211646">
<time>2021-10-07T12:32:30Z</time>
</trkpt>
<trkpt lat="39.487308" lon="-8.211293">
<time>2021-10-07T12:32:37Z</time>
</trkpt>
<trkpt lat="39.487566" lon="-8.211024">
<time>2021-10-07T12:32:44Z</time>
</trkpt>
<trkpt lat="39.487822" lon="-8.21075">
<time>2021-10-07T12:32:51Z</time>
</trkpt>
<trkpt lat="39.487928" lon="-8.210611">
<time>2021-10-07T12:32:54Z</time>
</trkpt>
<trkpt lat="39.488147" lon="-8.210366">
<time>2021-10-07T12:32:59Z</time>
</trkpt>
<trkpt lat="39.488202" lon="-8.21033">
<time>2021-10-07T12:33:00Z</time>
</trkpt>
<trkpt lat="39.488523" lon="-8.210198">
<time>2021-10-07T12:33:05Z</time>
</trkpt>
<trkpt lat="39.488595" lon="-8.210156">
<time>2021-10-07T12:33:06Z</time>
</trkpt>
<trkpt lat="39.488822" lon="-8.209981">
<time>2021-10-07T12:33:09Z</time>
</trkpt>
<trkpt lat="39.489203" lon="-8.209596">
<time>2021-10-07T12:33:14Z</time>
</trkpt>
<trkpt lat="39.489433" lon="-8.20941">
<time>2021-10-07T12:33:17Z</time>
</trkpt>
<trkpt lat="39.48959" lon="-8.209308">
<time>2021-10-07T12:33:19Z</time>
</trkpt>
<trkpt lat="39.490012" lon="-8.209145">
<time>2021-10-07T12:33:24Z</time>
</trkpt>
<trkpt lat="39.490362" lon="-8.209168">
<time>2021-10-07T12:33:28Z</time>
</trkpt>
<trkpt lat="39.490949" lon="-8.209308">
<time>2021-10-07T12:33:35Z</time>
</trkpt>
<trkpt lat="39.49112" lon="-8.209345">
<time>2021-10-07T12:33:37Z</time>
</trkpt>
<trkpt lat="39.491455" lon="-8.20942">
<time>2021-10-07T12:33:41Z</time>
</trkpt>
<trkpt lat="39.491761" lon="-8.209437">
<time>2021-10-07T12:33:45Z</time>
</trkpt>
<trkpt lat="39.491891" lon="-8.209397">
<time>2021-10-07T12:33:47Z</time>
</trkpt>
<trkpt lat="39.492002" lon="-8.209348">
<time>2021-10-07T12:33:49Z</time>
</trkpt>
<trkpt lat="39.492272" lon="-8.209167">
<time>2021-10-07T12:33:55Z</time>
</trkpt>
<trkpt lat="39.492422" lon="-8.209066">
<time>2021-10-07T12:33:59Z</time>
</trkpt>
<trkpt lat="39.49252" lon="-8.208981">
<time>2021-10-07T12:34:02Z</time>
</trkpt>
<trkpt lat="39.492551" lon="-8.208807">
<time>2021-10-07T12:34:06Z</time>
</trkpt>
<trkpt lat="39.492569" lon="-8.208475">
<time>2021-10-07T12:34:13Z</time>
</trkpt>
<trkpt lat="39.492587" lon="-8.208378">
<time>2021-10-07T12:34:15Z</time>
</trkpt>
<trkpt lat="39.492702" lon="-8.208066">
<time>2021-10-07T12:34:22Z</time>
</trkpt>
<trkpt lat="39.492892" lon="-8.207739">
<time>2021-10-07T12:34:28Z</time>
</trkpt>
<trkpt lat="39.493135" lon="-8.207448">
<time>2021-10-07T12:34:33Z</time>
</trkpt>
<trkpt lat="39.493535" lon="-8.207176">
<time>2021-10-07T12:34:40Z</time>
</trkpt>
<trkpt lat="39.493807" lon="-8.207077">
<time>2021-10-07T12:34:45Z</time>
</trkpt>
<trkpt lat="39.493923" lon="-8.207043">
<time>2021-10-07T12:34:47Z</time>
</trkpt>
<trkpt lat="39.494453" lon="-8.206891">
<time>2021-10-07T12:34:56Z</time>
</trkpt>
<trkpt lat="39.494629" lon="-8.206847">
<time>2021-10-07T12:34:59Z</time>
</trkpt>
<trkpt lat="39.494741" lon="-8.206808">
<time>2021-10-07T12:35:01Z</time>
</trkpt>
<trkpt lat="39.494841" lon="-8.206797">
<time>2021-10-07T12:35:03Z</time>
</trkpt>
<trkpt lat="39.494934" lon="-8.206823">
<time>2021-10-07T12:35:05Z</time>
</trkpt>
<trkpt lat="39.49507" lon="-8.206876">
<time>2021-10-07T12:35:08Z</time>
</trkpt>
<trkpt lat="39.495428" lon="-8.206983">
<time>2021-10-07T12:35:16Z</time>
</trkpt>
<trkpt lat="39.495481" lon="-8.206977">
<time>2021-10-07T12:35:17Z</time>
</trkpt>
<trkpt lat="39.495891" lon="-8.2069">
<time>2021-10-07T12:35:24Z</time>
</trkpt>
<trkpt lat="39.496258" lon="-8.206731">
<time>2021-10-07T12:35:30Z</time>
</trkpt>
<trkpt lat="39.496381" lon="-8.206656">
<time>2021-10-07T12:35:32Z</time>
</trkpt>
<trkpt lat="39.496517" lon="-8.206493">
<time>2021-10-07T12:35:35Z</time>
</trkpt>
<trkpt lat="39.496679" lon="-8.206263">
<time>2021-10-07T12:35:40Z</time>
</trkpt>
<trkpt lat="39.496887" lon="-8.205956">
<time>2021-10-07T12:35:48Z</time>
</trkpt>
<trkpt lat="39.497087" lon="-8.205746">
<time>2021-10-07T12:35:54Z</time>
</trkpt>
<trkpt lat="39.497353" lon="-8.205524">
<time>2021-10-07T12:36:00Z</time>
</trkpt>
<trkpt lat="39.4974" lon="-8.205501">
<time>2021-10-07T12:36:01Z</time>
</trkpt>
<trkpt lat="39.497451" lon="-8.205487">
<time>2021-10-07T12:36:02Z</time>
</trkpt>
<trkpt lat="39.49766" lon="-8.205436">
<time>2021-10-07T12:36:06Z</time>
</trkpt>
<trkpt lat="39.497803" lon="-8.205367">
<time>2021-10-07T12:36:10Z</time>
</trkpt>
<trkpt lat="39.497928" lon="-8.205233">
<time>2021-10-07T12:36:16Z</time>
</trkpt>
<trkpt lat="39.497951" lon="-8.205199">
<time>2021-10-07T12:36:17Z</time>
</trkpt>
<trkpt lat="39.498094" lon="-8.205035">
<time>2021-10-07T12:36:22Z</time>
</trkpt>
<trkpt lat="39.498245" lon="-8.205042">
<time>2021-10-07T12:36:26Z</time>
</trkpt>
<trkpt lat="39.498388" lon="-8.205134">
<time>2021-10-07T12:36:31Z</time>
</trkpt>
<trkpt lat="39.498557" lon="-8.20532">
<time>2021-10-07T12:36:37Z</time>
</trkpt>
<trkpt lat="39.498619" lon="-8.205419">
<time>2021-10-07T12:36:39Z</time>
</trkpt>
<trkpt lat="39.498664" lon="-8.205552">
<time>2021-10-07T12:36:41Z</time>
</trkpt>
<trkpt lat="39.498678" lon="-8.205624">
<time>2021-10-07T12:36:42Z</time>
</trkpt>
<trkpt lat="39.498733" lon="-8.20591">
<time>2021-10-07T12:36:46Z</time>
</trkpt>
<trkpt lat="39.498755" lon="-8.206026">
<time>2021-10-07T12:36:48Z</time>
</trkpt>
<trkpt lat="39.498721" lon="-8.206234">
<time>2021-10-07T12:36:52Z</time>
</trkpt>
<trkpt lat="39.498612" lon="-8.20648">
<time>2021-10-07T12:36:56Z</time>
</trkpt>
<trkpt lat="39.49858" lon="-8.206555">
<time>2021-10-07T12:36:57Z</time>
</trkpt>
<trkpt lat="39.498474" lon="-8.206825">
<time>2021-10-07T12:37:00Z</time>
</trkpt>
<trkpt lat="39.498402" lon="-8.207057">
<time>2021-10-07T12:37:02Z</time>
</trkpt>
<trkpt lat="39.49838" lon="-8.207172">
<time>2021-10-07T12:37:03Z</time>
</trkpt>
<trkpt lat="39.498367" lon="-8.207378">
<time>2021-10-07T12:37:05Z</time>
</trkpt>
<trkpt lat="39.498366" lon="-8.207459">
<time>2021-10-07T12:37:06Z</time>
</trkpt>
<trkpt lat="39.498369" lon="-8.207521">
<time>2021-10-07T12:37:07Z</time>
</trkpt>
<trkpt lat="39.498385" lon="-8.207561">
<time>2021-10-07T12:37:08Z</time>
</trkpt>
<trkpt lat="39.49847" lon="-8.207661">
<time>2021-10-07T12:37:11Z</time>
</trkpt>
<trkpt lat="39.498552" lon="-8.207744">
<time>2021-10-07T12:37:13Z</time>
</trkpt>
<trkpt lat="39.498631" lon="-8.207816">
<time>2021-10-07T12:37:15Z</time>
</trkpt>
<trkpt lat="39.498721" lon="-8.207894">
<time>2021-10-07T12:37:17Z</time>
</trkpt>
<trkpt lat="39.498775" lon="-8.207944">
<time>2021-10-07T12:37:18Z</time>
</trkpt>
<trkpt lat="39.498887" lon="-8.20807">
<time>2021-10-07T12:37:20Z</time>
</trkpt>
<trkpt lat="39.498978" lon="-8.208234">
<time>2021-10-07T12:37:22Z</time>
</trkpt>
<trkpt lat="39.499136" lon="-8.208584">
<time>2021-10-07T12:37:26Z</time>
</trkpt>
<trkpt lat="39.499182" lon="-8.208661">
<time>2021-10-07T12:37:27Z</time>
</trkpt>
<trkpt lat="39.499235" lon="-8.208739">
<time>2021-10-07T12:37:28Z</time>
</trkpt>
<trkpt lat="39.499514" lon="-8.209082">
<time>2021-10-07T12:37:33Z</time>
</trkpt>
<trkpt lat="39.499638" lon="-8.209419">
<time>2021-10-07T12:37:37Z</time>
</trkpt>
<trkpt lat="39.499791" lon="-8.209893">
<time>2021-10-07T12:37:43Z</time>
</trkpt>
<trkpt lat="39.499815" lon="-8.20999">
<time>2021-10-07T12:37:44Z</time>
</trkpt>
<trkpt lat="39.49987" lon="-8.210217">
<time>2021-10-07T12:37:47Z</time>
</trkpt>
<trkpt lat="39.499901" lon="-8.210352">
<time>2021-10-07T12:37:49Z</time>
</trkpt>
<trkpt lat="39.499926" lon="-8.210454">
<time>2021-10-07T12:37:51Z</time>
</trkpt>
<trkpt lat="39.49998" lon="-8.21062">
<time>2021-10-07T12:37:55Z</time>
</trkpt>
<trkpt lat="39.500002" lon="-8.210621">
<time>2021-10-07T12:37:56Z</time>
</trkpt>
<trkpt lat="39.500119" lon="-8.210516">
<time>2021-10-07T12:38:00Z</time>
</trkpt>
<trkpt lat="39.500342" lon="-8.210355">
<time>2021-10-07T12:38:05Z</time>
</trkpt>
<trkpt lat="39.500521" lon="-8.210223">
<time>2021-10-07T12:38:09Z</time>
</trkpt>
<trkpt lat="39.500619" lon="-8.210165">
<time>2021-10-07T12:38:11Z</time>
</trkpt>
<trkpt lat="39.50067" lon="-8.210142">
<time>2021-10-07T12:38:12Z</time>
</trkpt>
<trkpt lat="39.50077" lon="-8.210083">
<time>2021-10-07T12:38:14Z</time>
</trkpt>
<trkpt lat="39.500847" lon="-8.209993">
<time>2021-10-07T12:38:16Z</time>
</trkpt>
<trkpt lat="39.501044" lon="-8.209735">
<time>2021-10-07T12:38:21Z</time>
</trkpt>
<trkpt lat="39.501122" lon="-8.209637">
<time>2021-10-07T12:38:23Z</time>
</trkpt>
<trkpt lat="39.50122" lon="-8.209498">
<time>2021-10-07T12:38:26Z</time>
</trkpt>
<trkpt lat="39.501312" lon="-8.209359">
<time>2021-10-07T12:38:29Z</time>
</trkpt>
<trkpt lat="39.501452" lon="-8.209199">
<time>2021-10-07T12:38:33Z</time>
</trkpt>
<trkpt lat="39.501562" lon="-8.209109">
<time>2021-10-07T12:38:36Z</time>
</trkpt>
<trkpt lat="39.501595" lon="-8.209078">
<time>2021-10-07T12:38:37Z</time>
</trkpt>
<trkpt lat="39.501727" lon="-8.208919">
<time>2021-10-07T12:38:41Z</time>
</trkpt>
<trkpt lat="39.501762" lon="-8.208875">
<time>2021-10-07T12:38:42Z</time>
</trkpt>
<trkpt lat="39.501792" lon="-8.208826">
<time>2021-10-07T12:38:43Z</time>
</trkpt>
<trkpt lat="39.5019" lon="-8.208611">
<time>2021-10-07T12:38:47Z</time>
</trkpt>
<trkpt lat="39.501935" lon="-8.208561">
<time>2021-10-07T12:38:48Z</time>
</trkpt>
<trkpt lat="39.50198" lon="-8.208514">
<time>2021-10-07T12:38:49Z</time>
</trkpt>
<trkpt lat="39.502128" lon="-8.208373">
<time>2021-10-07T12:38:52Z</time>
</trkpt>
<trkpt lat="39.502169" lon="-8.208312">
<time>2021-10-07T12:38:53Z</time>
</trkpt>
<trkpt lat="39.50224" lon="-8.20823">
<time>2021-10-07T12:38:55Z</time>
</trkpt>
<trkpt lat="39.502268" lon="-8.208219">
<time>2021-10-07T12:38:56Z</time>
</trkpt>
<trkpt lat="39.502279" lon="-8.208227">
<time>2021-10-07T12:38:57Z</time>
</trkpt>
<trkpt lat="39.502276" lon="-8.20824">
<time>2021-10-07T12:38:58Z</time>
</trkpt>
<trkpt lat="39.502203" lon="-8.208298">
<time>2021-10-07T12:39:01Z</time>
</trkpt>
<trkpt lat="39.502169" lon="-8.208331">
<time>2021-10-07T12:39:02Z</time>
</trkpt>
<trkpt lat="39.501967" lon="-8.208523">
<time>2021-10-07T12:39:07Z</time>
</trkpt>
<trkpt lat="39.501815" lon="-8.208776">
<time>2021-10-07T12:39:12Z</time>
</trkpt>
<trkpt lat="39.501746" lon="-8.208891">
<time>2021-10-07T12:39:14Z</time>
</trkpt>
<trkpt lat="39.501586" lon="-8.209069">
<time>2021-10-07T12:39:18Z</time>
</trkpt>
<trkpt lat="39.501382" lon="-8.209257">
<time>2021-10-07T12:39:22Z</time>
</trkpt>
<trkpt lat="39.501332" lon="-8.209318">
<time>2021-10-07T12:39:23Z</time>
</trkpt>
<trkpt lat="39.50098" lon="-8.209769">
<time>2021-10-07T12:39:30Z</time>
</trkpt>
<trkpt lat="39.500766" lon="-8.210042">
<time>2021-10-07T12:39:34Z</time>
</trkpt>
<trkpt lat="39.500638" lon="-8.21012">
<time>2021-10-07T12:39:36Z</time>
</trkpt>
<trkpt lat="39.500266" lon="-8.210378">
<time>2021-10-07T12:39:42Z</time>
</trkpt>
<trkpt lat="39.499805" lon="-8.210773">
<time>2021-10-07T12:39:50Z</time>
</trkpt>
<trkpt lat="39.49952" lon="-8.211026">
<time>2021-10-07T12:39:55Z</time>
</trkpt>
<trkpt lat="39.499394" lon="-8.211117">
<time>2021-10-07T12:39:57Z</time>
</trkpt>
<trkpt lat="39.498971" lon="-8.211448">
<time>2021-10-07T12:40:04Z</time>
</trkpt>
<trkpt lat="39.49853" lon="-8.211728">
<time>2021-10-07T12:40:11Z</time>
</trkpt>
<trkpt lat="39.498158" lon="-8.211993">
<time>2021-10-07T12:40:17Z</time>
</trkpt>
<trkpt lat="39.498093" lon="-8.212018">
<time>2021-10-07T12:40:18Z</time>
</trkpt>
<trkpt lat="39.498026" lon="-8.212034">
<time>2021-10-07T12:40:19Z</time>
</trkpt>
<trkpt lat="39.497887" lon="-8.212074">
<time>2021-10-07T12:40:21Z</time>
</trkpt>
<trkpt lat="39.497822" lon="-8.212109">
<time>2021-10-07T12:40:22Z</time>
</trkpt>
<trkpt lat="39.497468" lon="-8.212387">
<time>2021-10-07T12:40:28Z</time>
</trkpt>
<trkpt lat="39.497137" lon="-8.212771">
<time>2021-10-07T12:40:34Z</time>
</trkpt>
<trkpt lat="39.496811" lon="-8.212989">
<time>2021-10-07T12:40:39Z</time>
</trkpt>
<trkpt lat="39.496486" lon="-8.213241">
<time>2021-10-07T12:40:44Z</time>
</trkpt>
<trkpt lat="39.496299" lon="-8.213392">
<time>2021-10-07T12:40:47Z</time>
</trkpt>
<trkpt lat="39.496252" lon="-8.213459">
<time>2021-10-07T12:40:48Z</time>
</trkpt>
<trkpt lat="39.496238" lon="-8.213527">
<time>2021-10-07T12:40:49Z</time>
</trkpt>
<trkpt lat="39.496258" lon="-8.213588">
<time>2021-10-07T12:40:50Z</time>
</trkpt>
<trkpt lat="39.496299" lon="-8.213625">
<time>2021-10-07T12:40:51Z</time>
</trkpt>
<trkpt lat="39.496348" lon="-8.213646">
<time>2021-10-07T12:40:52Z</time>
</trkpt>
<trkpt lat="39.496817" lon="-8.213854">
<time>2021-10-07T12:41:02Z</time>
</trkpt>
<trkpt lat="39.49697" lon="-8.213924">
<time>2021-10-07T12:41:06Z</time>
</trkpt>
<trkpt lat="39.49707" lon="-8.21397">
<time>2021-10-07T12:41:09Z</time>
</trkpt>
<trkpt lat="39.497162" lon="-8.214013">
<time>2021-10-07T12:41:12Z</time>
</trkpt>
<trkpt lat="39.497355" lon="-8.214101">
<time>2021-10-07T12:41:18Z</time>
</trkpt>
<trkpt lat="39.497739" lon="-8.214263">
<time>2021-10-07T12:41:29Z</time>
</trkpt>
<trkpt lat="39.497778" lon="-8.214277">
<time>2021-10-07T12:41:30Z</time>
</trkpt>
<trkpt lat="39.498203" lon="-8.214451">
<time>2021-10-07T12:41:40Z</time>
</trkpt>
<trkpt lat="39.498645" lon="-8.214667">
<time>2021-10-07T12:41:49Z</time>
</trkpt>
<trkpt lat="39.499179" lon="-8.215028">
<time>2021-10-07T12:41:59Z</time>
</trkpt>
<trkpt lat="39.499634" lon="-8.21533">
<time>2021-10-07T12:42:07Z</time>
</trkpt>
<trkpt lat="39.499769" lon="-8.215348">
<time>2021-10-07T12:42:09Z</time>
</trkpt>
<trkpt lat="39.499906" lon="-8.215334">
<time>2021-10-07T12:42:11Z</time>
</trkpt>
<trkpt lat="39.499974" lon="-8.215317">
<time>2021-10-07T12:42:12Z</time>
</trkpt>
<trkpt lat="39.500243" lon="-8.215201">
<time>2021-10-07T12:42:16Z</time>
</trkpt>
<trkpt lat="39.500668" lon="-8.215078">
<time>2021-10-07T12:42:22Z</time>
</trkpt>
<trkpt lat="39.5011" lon="-8.215115">
<time>2021-10-07T12:42:28Z</time>
</trkpt>
<trkpt lat="39.501451" lon="-8.215251">
<time>2021-10-07T12:42:33Z</time>
</trkpt>
<trkpt lat="39.501805" lon="-8.215565">
<time>2021-10-07T12:42:39Z</time>
</trkpt>
<trkpt lat="39.50222" lon="-8.216011">
<time>2021-10-07T12:42:47Z</time>
</trkpt>
<trkpt lat="39.502352" lon="-8.216176">
<time>2021-10-07T12:42:50Z</time>
</trkpt>
<trkpt lat="39.502559" lon="-8.21651">
<time>2021-10-07T12:42:56Z</time>
</trkpt>
<trkpt lat="39.502749" lon="-8.216845">
<time>2021-10-07T12:43:03Z</time>
</trkpt>
<trkpt lat="39.502796" lon="-8.216927">
<time>2021-10-07T12:43:05Z</time>
</trkpt>
<trkpt lat="39.503013" lon="-8.217349">
<time>2021-10-07T12:43:14Z</time>
</trkpt>
<trkpt lat="39.503262" lon="-8.217804">
<time>2021-10-07T12:43:23Z</time>
</trkpt>
<trkpt lat="39.503511" lon="-8.218183">
<time>2021-10-07T12:43:31Z</time>
</trkpt>
<trkpt lat="39.503598" lon="-8.218294">
<time>2021-10-07T12:43:34Z</time>
</trkpt>
<trkpt lat="39.503661" lon="-8.218362">
<time>2021-10-07T12:43:36Z</time>
</trkpt>
<trkpt lat="39.503952" lon="-8.218573">
<time>2021-10-07T12:43:44Z</time>
</trkpt>
<trkpt lat="39.504444" lon="-8.218927">
<time>2021-10-07T12:43:57Z</time>
</trkpt>
<trkpt lat="39.504822" lon="-8.219177">
<time>2021-10-07T12:44:06Z</time>
</trkpt>
<trkpt lat="39.505344" lon="-8.219516">
<time>2021-10-07T12:44:17Z</time>
</trkpt>
<trkpt lat="39.505826" lon="-8.219824">
<time>2021-10-07T12:44:27Z</time>
</trkpt>
<trkpt lat="39.506208" lon="-8.220084">
<time>2021-10-07T12:44:35Z</time>
</trkpt>
<trkpt lat="39.506485" lon="-8.220239">
<time>2021-10-07T12:44:41Z</time>
</trkpt>
<trkpt lat="39.50663" lon="-8.220305">
<time>2021-10-07T12:44:44Z</time>
</trkpt>
<trkpt lat="39.506845" lon="-8.220399">
<time>2021-10-07T12:44:49Z</time>
</trkpt>
<trkpt lat="39.506897" lon="-8.220477">
<time>2021-10-07T12:44:51Z</time>
</trkpt>
<trkpt lat="39.506901" lon="-8.220521">
<time>2021-10-07T12:44:52Z</time>
</trkpt>
<trkpt lat="39.50688" lon="-8.220621">
<time>2021-10-07T12:44:54Z</time>
</trkpt>
<trkpt lat="39.506853" lon="-8.220664">
<time>2021-10-07T12:44:55Z</time>
</trkpt>
<trkpt lat="39.506784" lon="-8.220702">
<time>2021-10-07T12:44:57Z</time>
</trkpt>
<trkpt lat="39.506674" lon="-8.220628">
<time>2021-10-07T12:45:00Z</time>
</trkpt>
<trkpt lat="39.506433" lon="-8.220317">
<time>2021-10-07T12:45:07Z</time>
</trkpt>
<trkpt lat="39.506077" lon="-8.220015">
<time>2021-10-07T12:45:15Z</time>
</trkpt>
<trkpt lat="39.50568" lon="-8.219761">
<time>2021-10-07T12:45:22Z</time>
</trkpt>
<trkpt lat="39.505187" lon="-8.219455">
<time>2021-10-07T12:45:30Z</time>
</trkpt>
<trkpt lat="39.504745" lon="-8.219153">
<time>2021-10-07T12:45:37Z</time>
</trkpt>
<trkpt lat="39.504551" lon="-8.219023">
<time>2021-10-07T12:45:40Z</time>
</trkpt>
<trkpt lat="39.504148" lon="-8.218757">
<time>2021-10-07T12:45:46Z</time>
</trkpt>
<trkpt lat="39.503867" lon="-8.218572">
<time>2021-10-07T12:45:50Z</time>
</trkpt>
<trkpt lat="39.503601" lon="-8.218345">
<time>2021-10-07T12:45:54Z</time>
</trkpt>
<trkpt lat="39.503537" lon="-8.218261">
<time>2021-10-07T12:45:55Z</time>
</trkpt>
<trkpt lat="39.503493" lon="-8.218221">
<time>2021-10-07T12:45:56Z</time>
</trkpt>
<trkpt lat="39.503396" lon="-8.218212">
<time>2021-10-07T12:45:58Z</time>
</trkpt>
<trkpt lat="39.503364" lon="-8.218332">
<time>2021-10-07T12:46:00Z</time>
</trkpt>
<trkpt lat="39.503342" lon="-8.218491">
<time>2021-10-07T12:46:02Z</time>
</trkpt>
<trkpt lat="39.503323" lon="-8.218573">
<time>2021-10-07T12:46:03Z</time>
</trkpt>
<trkpt lat="39.503293" lon="-8.218663">
<time>2021-10-07T12:46:04Z</time>
</trkpt>
<trkpt lat="39.503233" lon="-8.218861">
<time>2021-10-07T12:46:06Z</time>
</trkpt>
<trkpt lat="39.503207" lon="-8.218973">
<time>2021-10-07T12:46:07Z</time>
</trkpt>
<trkpt lat="39.503149" lon="-8.2192">
<time>2021-10-07T12:46:09Z</time>
</trkpt>
<trkpt lat="39.503044" lon="-8.219335">
<time>2021-10-07T12:46:11Z</time>
</trkpt>
<trkpt lat="39.502843" lon="-8.219427">
<time>2021-10-07T12:46:14Z</time>
</trkpt>
<trkpt lat="39.502515" lon="-8.219586">
<time>2021-10-07T12:46:19Z</time>
</trkpt>
<trkpt lat="39.502444" lon="-8.219592">
<time>2021-10-07T12:46:20Z</time>
</trkpt>
<trkpt lat="39.502236" lon="-8.219594">
<time>2021-10-07T12:46:23Z</time>
</trkpt>
<trkpt lat="39.502034" lon="-8.219626">
<time>2021-10-07T12:46:26Z</time>
</trkpt>
<trkpt lat="39.501659" lon="-8.219714">
<time>2021-10-07T12:46:32Z</time>
</trkpt>
<trkpt lat="39.501604" lon="-8.219703">
<time>2021-10-07T12:46:33Z</time>
</trkpt>
<trkpt lat="39.501557" lon="-8.219672">
<time>2021-10-07T12:46:34Z</time>
</trkpt>
<trkpt lat="39.501487" lon="-8.219583">
<time>2021-10-07T12:46:36Z</time>
</trkpt>
<trkpt lat="39.501379" lon="-8.219439">
<time>2021-10-07T12:46:39Z</time>
</trkpt>
<trkpt lat="39.501278" lon="-8.219391">
<time>2021-10-07T12:46:41Z</time>
</trkpt>
<trkpt lat="39.501169" lon="-8.219398">
<time>2021-10-07T12:46:43Z</time>
</trkpt>
<trkpt lat="39.501123" lon="-8.219428">
<time>2021-10-07T12:46:44Z</time>
</trkpt>
<trkpt lat="39.50105" lon="-8.219504">
<time>2021-10-07T12:46:46Z</time>
</trkpt>
<trkpt lat="39.501016" lon="-8.219577">
<time>2021-10-07T12:46:48Z</time>
</trkpt>
<trkpt lat="39.500973" lon="-8.219662">
<time>2021-10-07T12:46:52Z</time>
</trkpt>
<trkpt lat="39.500946" lon="-8.219715">
<time>2021-10-07T12:46:55Z</time>
</trkpt>
<trkpt lat="39.500926" lon="-8.219756">
<time>2021-10-07T12:46:57Z</time>
</trkpt>
<trkpt lat="39.500905" lon="-8.219796">
<time>2021-10-07T12:46:59Z</time>
</trkpt>
<trkpt lat="39.500892" lon="-8.219834">
<time>2021-10-07T12:47:01Z</time>
</trkpt>
<trkpt lat="39.500882" lon="-8.219891">
<time>2021-10-07T12:47:04Z</time>
</trkpt>
<trkpt lat="39.500861" lon="-8.219959">
<time>2021-10-07T12:47:07Z</time>
</trkpt>
<trkpt lat="39.500812" lon="-8.22012">
<time>2021-10-07T12:47:14Z</time>
</trkpt>
<trkpt lat="39.500775" lon="-8.220275">
<time>2021-10-07T12:47:21Z</time>
</trkpt>
<trkpt lat="39.500755" lon="-8.220343">
<time>2021-10-07T12:47:24Z</time>
</trkpt>
<trkpt lat="39.500711" lon="-8.220488">
<time>2021-10-07T12:47:30Z</time>
</trkpt>
<trkpt lat="39.500686" lon="-8.220576">
<time>2021-10-07T12:47:33Z</time>
</trkpt>
<trkpt lat="39.50063" lon="-8.220843">
<time>2021-10-07T12:47:39Z</time>
</trkpt>
<trkpt lat="39.500601" lon="-8.221014">
<time>2021-10-07T12:47:44Z</time>
</trkpt>
<trkpt lat="39.500568" lon="-8.221201">
<time>2021-10-07T12:47:52Z</time>
</trkpt>
<trkpt lat="39.500519" lon="-8.221461">
<time>2021-10-07T12:48:03Z</time>
</trkpt>
<trkpt lat="39.500483" lon="-8.22152">
<time>2021-10-07T12:48:08Z</time>
</trkpt>
<trkpt lat="39.500473" lon="-8.221496">
<time>2021-10-07T12:48:10Z</time>
</trkpt>
<trkpt lat="39.500464" lon="-8.221492">
<time>2021-10-07T12:48:12Z</time>
</trkpt>
<trkpt lat="39.500461" lon="-8.22151">
<time>2021-10-07T12:48:13Z</time>
</trkpt>
<trkpt lat="39.500438" lon="-8.221646">
<time>2021-10-07T12:48:18Z</time>
</trkpt>
<trkpt lat="39.500363" lon="-8.221858">
<time>2021-10-07T12:48:23Z</time>
</trkpt>
<trkpt lat="39.500278" lon="-8.222199">
<time>2021-10-07T12:48:30Z</time>
</trkpt>
<trkpt lat="39.500244" lon="-8.222256">
<time>2021-10-07T12:48:32Z</time>
</trkpt>
<trkpt lat="39.500189" lon="-8.222288">
<time>2021-10-07T12:48:34Z</time>
</trkpt>
<trkpt lat="39.500074" lon="-8.222341">
<time>2021-10-07T12:48:37Z</time>
</trkpt>
<trkpt lat="39.500034" lon="-8.222373">
<time>2021-10-07T12:48:38Z</time>
</trkpt>
<trkpt lat="39.499993" lon="-8.222413">
<time>2021-10-07T12:48:39Z</time>
</trkpt>
<trkpt lat="39.499805" lon="-8.222608">
<time>2021-10-07T12:48:43Z</time>
</trkpt>
<trkpt lat="39.499605" lon="-8.222824">
<time>2021-10-07T12:48:47Z</time>
</trkpt>
<trkpt lat="39.499535" lon="-8.222959">
<time>2021-10-07T12:48:49Z</time>
</trkpt>
<trkpt lat="39.499458" lon="-8.223183">
<time>2021-10-07T12:48:52Z</time>
</trkpt>
<trkpt lat="39.499402" lon="-8.223451">
<time>2021-10-07T12:48:55Z</time>
</trkpt>
<trkpt lat="39.499388" lon="-8.223777">
<time>2021-10-07T12:48:58Z</time>
</trkpt>
<trkpt lat="39.49936" lon="-8.223876">
<time>2021-10-07T12:48:59Z</time>
</trkpt>
<trkpt lat="39.499316" lon="-8.223955">
<time>2021-10-07T12:49:00Z</time>
</trkpt>
<trkpt lat="39.499258" lon="-8.224013">
<time>2021-10-07T12:49:01Z</time>
</trkpt>
<trkpt lat="39.498848" lon="-8.224363">
<time>2021-10-07T12:49:08Z</time>
</trkpt>
<trkpt lat="39.498782" lon="-8.224449">
<time>2021-10-07T12:49:10Z</time>
</trkpt>
<trkpt lat="39.498744" lon="-8.224458">
<time>2021-10-07T12:49:11Z</time>
</trkpt>
<trkpt lat="39.498704" lon="-8.224442">
<time>2021-10-07T12:49:12Z</time>
</trkpt>
<trkpt lat="39.49862" lon="-8.224378">
<time>2021-10-07T12:49:14Z</time>
</trkpt>
<trkpt lat="39.498267" lon="-8.224135">
<time>2021-10-07T12:49:21Z</time>
</trkpt>
<trkpt lat="39.497853" lon="-8.223927">
<time>2021-10-07T12:49:28Z</time>
</trkpt>
<trkpt lat="39.497369" lon="-8.22375">
<time>2021-10-07T12:49:36Z</time>
</trkpt>
<trkpt lat="39.496913" lon="-8.223674">
<time>2021-10-07T12:49:43Z</time>
</trkpt>
<trkpt lat="39.496641" lon="-8.223652">
<time>2021-10-07T12:49:48Z</time>
</trkpt>
<trkpt lat="39.496347" lon="-8.223535">
<time>2021-10-07T12:49:54Z</time>
</trkpt>
<trkpt lat="39.496094" lon="-8.223445">
<time>2021-10-07T12:49:58Z</time>
</trkpt>
<trkpt lat="39.496028" lon="-8.223434">
<time>2021-10-07T12:49:59Z</time>
</trkpt>
<trkpt lat="39.495916" lon="-8.223392">
<time>2021-10-07T12:50:01Z</time>
</trkpt>
<trkpt lat="39.495857" lon="-8.223324">
<time>2021-10-07T12:50:03Z</time>
</trkpt>
<trkpt lat="39.495845" lon="-8.223286">
<time>2021-10-07T12:50:04Z</time>
</trkpt>
<trkpt lat="39.49582" lon="-8.223148">
<time>2021-10-07T12:50:07Z</time>
</trkpt>
<trkpt lat="39.495734" lon="-8.222633">
<time>2021-10-07T12:50:16Z</time>
</trkpt>
<trkpt lat="39.495658" lon="-8.222273">
<time>2021-10-07T12:50:22Z</time>
</trkpt>
<trkpt lat="39.495635" lon="-8.222089">
<time>2021-10-07T12:50:25Z</time>
</trkpt>
<trkpt lat="39.495581" lon="-8.221769">
<time>2021-10-07T12:50:30Z</time>
</trkpt>
<trkpt lat="39.495561" lon="-8.221713">
<time>2021-10-07T12:50:31Z</time>
</trkpt>
<trkpt lat="39.495539" lon="-8.221662">
<time>2021-10-07T12:50:32Z</time>
</trkpt>
<trkpt lat="39.495525" lon="-8.221625">
<time>2021-10-07T12:50:33Z</time>
</trkpt>
<trkpt lat="39.495538" lon="-8.221616">
<time>2021-10-07T12:50:35Z</time>
</trkpt>
<trkpt lat="39.4956" lon="-8.221769">
<time>2021-10-07T12:50:39Z</time>
</trkpt>
<trkpt lat="39.495614" lon="-8.22183">
<time>2021-10-07T12:50:40Z</time>
</trkpt>
<trkpt lat="39.495659" lon="-8.22209">
<time>2021-10-07T12:50:44Z</time>
</trkpt>
<trkpt lat="39.495738" lon="-8.22251">
<time>2021-10-07T12:50:50Z</time>
</trkpt>
<trkpt lat="39.495774" lon="-8.222672">
<time>2021-10-07T12:50:52Z</time>
</trkpt>
<trkpt lat="39.495917" lon="-8.223331">
<time>2021-10-07T12:51:00Z</time>
</trkpt>
<trkpt lat="39.495913" lon="-8.223466">
<time>2021-10-07T12:51:02Z</time>
</trkpt>
<trkpt lat="39.495887" lon="-8.22352">
<time>2021-10-07T12:51:03Z</time>
</trkpt>
<trkpt lat="39.495844" lon="-8.223557">
<time>2021-10-07T12:51:04Z</time>
</trkpt>
<trkpt lat="39.49574" lon="-8.223611">
<time>2021-10-07T12:51:06Z</time>
</trkpt>
<trkpt lat="39.495618" lon="-8.223651">
<time>2021-10-07T12:51:08Z</time>
</trkpt>
<trkpt lat="39.495474" lon="-8.223655">
<time>2021-10-07T12:51:10Z</time>
</trkpt>
<trkpt lat="39.495165" lon="-8.223559">
<time>2021-10-07T12:51:14Z</time>
</trkpt>
<trkpt lat="39.494637" lon="-8.223375">
<time>2021-10-07T12:51:21Z</time>
</trkpt>
<trkpt lat="39.494312" lon="-8.2233">
<time>2021-10-07T12:51:26Z</time>
</trkpt>
<trkpt lat="39.49392" lon="-8.223245">
<time>2021-10-07T12:51:33Z</time>
</trkpt>
<trkpt lat="39.493482" lon="-8.223233">
<time>2021-10-07T12:51:40Z</time>
</trkpt>
<trkpt lat="39.493356" lon="-8.22321">
<time>2021-10-07T12:51:42Z</time>
</trkpt>
<trkpt lat="39.493189" lon="-8.223152">
<time>2021-10-07T12:51:45Z</time>
</trkpt>
<trkpt lat="39.492982" lon="-8.223088">
<time>2021-10-07T12:51:50Z</time>
</trkpt>
<trkpt lat="39.492829" lon="-8.223066">
<time>2021-10-07T12:51:54Z</time>
</trkpt>
<trkpt lat="39.492697" lon="-8.223073">
<time>2021-10-07T12:51:57Z</time>
</trkpt>
<trkpt lat="39.492647" lon="-8.223071">
<time>2021-10-07T12:51:58Z</time>
</trkpt>
<trkpt lat="39.492415" lon="-8.223023">
<time>2021-10-07T12:52:02Z</time>
</trkpt>
<trkpt lat="39.492099" lon="-8.222983">
<time>2021-10-07T12:52:08Z</time>
</trkpt>
<trkpt lat="39.492046" lon="-8.223">
<time>2021-10-07T12:52:09Z</time>
</trkpt>
<trkpt lat="39.491987" lon="-8.223032">
<time>2021-10-07T12:52:10Z</time>
</trkpt>
<trkpt lat="39.491795" lon="-8.223155">
<time>2021-10-07T12:52:13Z</time>
</trkpt>
<trkpt lat="39.491462" lon="-8.223439">
<time>2021-10-07T12:52:18Z</time>
</trkpt>
<trkpt lat="39.491096" lon="-8.2238">
<time>2021-10-07T12:52:23Z</time>
</trkpt>
<trkpt lat="39.490937" lon="-8.223978">
<time>2021-10-07T12:52:25Z</time>
</trkpt>
<trkpt lat="39.490648" lon="-8.224304">
<time>2021-10-07T12:52:29Z</time>
</trkpt>
<trkpt lat="39.490479" lon="-8.22446">
<time>2021-10-07T12:52:32Z</time>
</trkpt>
<trkpt lat="39.490421" lon="-8.224495">
<time>2021-10-07T12:52:33Z</time>
</trkpt>
<trkpt lat="39.490188" lon="-8.224573">
<time>2021-10-07T12:52:37Z</time>
</trkpt>
<trkpt lat="39.490128" lon="-8.224582">
<time>2021-10-07T12:52:38Z</time>
</trkpt>
<trkpt lat="39.490009" lon="-8.224611">
<time>2021-10-07T12:52:40Z</time>
</trkpt>
<trkpt lat="39.489853" lon="-8.224689">
<time>2021-10-07T12:52:43Z</time>
</trkpt>
<trkpt lat="39.489588" lon="-8.224807">
<time>2021-10-07T12:52:49Z</time>
</trkpt>
<trkpt lat="39.489503" lon="-8.224835">
<time>2021-10-07T12:52:51Z</time>
</trkpt>
<trkpt lat="39.48932" lon="-8.224957">
<time>2021-10-07T12:52:55Z</time>
</trkpt>
<trkpt lat="39.488943" lon="-8.225225">
<time>2021-10-07T12:53:02Z</time>
</trkpt>
<trkpt lat="39.488645" lon="-8.22546">
<time>2021-10-07T12:53:08Z</time>
</trkpt>
<trkpt lat="39.488528" lon="-8.225544">
<time>2021-10-07T12:53:11Z</time>
</trkpt>
<trkpt lat="39.488451" lon="-8.225585">
<time>2021-10-07T12:53:13Z</time>
</trkpt>
<trkpt lat="39.48818" lon="-8.225676">
<time>2021-10-07T12:53:20Z</time>
</trkpt>
<trkpt lat="39.487762" lon="-8.225775">
<time>2021-10-07T12:53:29Z</time>
</trkpt>
<trkpt lat="39.487435" lon="-8.225741">
<time>2021-10-07T12:53:35Z</time>
</trkpt>
<trkpt lat="39.487221" lon="-8.225691">
<time>2021-10-07T12:53:38Z</time>
</trkpt>
<trkpt lat="39.487065" lon="-8.225662">
<time>2021-10-07T12:53:40Z</time>
</trkpt>
<trkpt lat="39.486831" lon="-8.225644">
<time>2021-10-07T12:53:43Z</time>
</trkpt>
<trkpt lat="39.486683" lon="-8.225614">
<time>2021-10-07T12:53:45Z</time>
</trkpt>
<trkpt lat="39.486612" lon="-8.225587">
<time>2021-10-07T12:53:46Z</time>
</trkpt>
<trkpt lat="39.486393" lon="-8.225519">
<time>2021-10-07T12:53:49Z</time>
</trkpt>
<trkpt lat="39.486321" lon="-8.225508">
<time>2021-10-07T12:53:50Z</time>
</trkpt>
<trkpt lat="39.486176" lon="-8.225531">
<time>2021-10-07T12:53:52Z</time>
</trkpt>
<trkpt lat="39.486097" lon="-8.225567">
<time>2021-10-07T12:53:53Z</time>
</trkpt>
<trkpt lat="39.485841" lon="-8.225659">
<time>2021-10-07T12:53:56Z</time>
</trkpt>
<trkpt lat="39.485754" lon="-8.225666">
<time>2021-10-07T12:53:57Z</time>
</trkpt>
<trkpt lat="39.4854" lon="-8.22565">
<time>2021-10-07T12:54:01Z</time>
</trkpt>
<trkpt lat="39.485236" lon="-8.225658">
<time>2021-10-07T12:54:03Z</time>
</trkpt>
<trkpt lat="39.485108" lon="-8.225683">
<time>2021-10-07T12:54:05Z</time>
</trkpt>
<trkpt lat="39.485067" lon="-8.225727">
<time>2021-10-07T12:54:06Z</time>
</trkpt>
<trkpt lat="39.485057" lon="-8.225784">
<time>2021-10-07T12:54:07Z</time>
</trkpt>
<trkpt lat="39.485058" lon="-8.225837">
<time>2021-10-07T12:54:08Z</time>
</trkpt>
<trkpt lat="39.485067" lon="-8.225889">
<time>2021-10-07T12:54:09Z</time>
</trkpt>
<trkpt lat="39.485174" lon="-8.226138">
<time>2021-10-07T12:54:13Z</time>
</trkpt>
<trkpt lat="39.4854" lon="-8.22653">
<time>2021-10-07T12:54:18Z</time>
</trkpt>
<trkpt lat="39.485704" lon="-8.227024">
<time>2021-10-07T12:54:23Z</time>
</trkpt>
<trkpt lat="39.485745" lon="-8.2271">
<time>2021-10-07T12:54:24Z</time>
</trkpt>
<trkpt lat="39.485772" lon="-8.227201">
<time>2021-10-07T12:54:26Z</time>
</trkpt>
<trkpt lat="39.485741" lon="-8.227235">
<time>2021-10-07T12:54:28Z</time>
</trkpt>
<trkpt lat="39.485727" lon="-8.22723">
<time>2021-10-07T12:54:29Z</time>
</trkpt>
<trkpt lat="39.485669" lon="-8.227173">
<time>2021-10-07T12:54:32Z</time>
</trkpt>
<trkpt lat="39.485611" lon="-8.227143">
<time>2021-10-07T12:54:34Z</time>
</trkpt>
<trkpt lat="39.485581" lon="-8.227148">
<time>2021-10-07T12:54:35Z</time>
</trkpt>
<trkpt lat="39.485552" lon="-8.227169">
<time>2021-10-07T12:54:36Z</time>
</trkpt>
<trkpt lat="39.485502" lon="-8.227207">
<time>2021-10-07T12:54:38Z</time>
</trkpt>
<trkpt lat="39.48549" lon="-8.227208">
<time>2021-10-07T12:54:39Z</time>
</trkpt>
<trkpt lat="39.485491" lon="-8.227204">
<time>2021-10-07T12:54:40Z</time>
</trkpt>
<trkpt lat="39.485518" lon="-8.227191">
<time>2021-10-07T12:54:42Z</time>
</trkpt>
<trkpt lat="39.485583" lon="-8.227143">
<time>2021-10-07T12:54:45Z</time>
</trkpt>
<trkpt lat="39.485612" lon="-8.227143">
<time>2021-10-07T12:54:46Z</time>
</trkpt>
<trkpt lat="39.485703" lon="-8.227197">
<time>2021-10-07T12:54:49Z</time>
</trkpt>
<trkpt lat="39.485739" lon="-8.227186">
<time>2021-10-07T12:54:51Z</time>
</trkpt>
<trkpt lat="39.485743" lon="-8.227161">
<time>2021-10-07T12:54:52Z</time>
</trkpt>
<trkpt lat="39.485685" lon="-8.227002">
<time>2021-10-07T12:54:57Z</time>
</trkpt>
<trkpt lat="39.485606" lon="-8.226898">
<time>2021-10-07T12:55:01Z</time>
</trkpt>
<trkpt lat="39.485572" lon="-8.226841">
<time>2021-10-07T12:55:03Z</time>
</trkpt>
<trkpt lat="39.485555" lon="-8.226816">
<time>2021-10-07T12:55:04Z</time>
</trkpt>
<trkpt lat="39.485504" lon="-8.226737">
<time>2021-10-07T12:55:07Z</time>
</trkpt>
<trkpt lat="39.485455" lon="-8.226662">
<time>2021-10-07T12:55:10Z</time>
</trkpt>
<trkpt lat="39.485394" lon="-8.226564">
<time>2021-10-07T12:55:14Z</time>
</trkpt>
<trkpt lat="39.485381" lon="-8.226537">
<time>2021-10-07T12:55:15Z</time>
</trkpt>
<trkpt lat="39.485284" lon="-8.226382">
<time>2021-10-07T12:55:22Z</time>
</trkpt>
<trkpt lat="39.485242" lon="-8.226314">
<time>2021-10-07T12:55:25Z</time>
</trkpt>
<trkpt lat="39.485138" lon="-8.226089">
<time>2021-10-07T12:55:33Z</time>
</trkpt>
<trkpt lat="39.485086" lon="-8.22588">
<time>2021-10-07T12:55:38Z</time>
</trkpt>
<trkpt lat="39.484957" lon="-8.225591">
<time>2021-10-07T12:55:43Z</time>
</trkpt>
<trkpt lat="39.484862" lon="-8.225293">
<time>2021-10-07T12:55:47Z</time>
</trkpt>
<trkpt lat="39.484845" lon="-8.225212">
<time>2021-10-07T12:55:48Z</time>
</trkpt>
<trkpt lat="39.484737" lon="-8.224701">
<time>2021-10-07T12:55:54Z</time>
</trkpt>
<trkpt lat="39.484679" lon="-8.224034">
<time>2021-10-07T12:56:00Z</time>
</trkpt>
<trkpt lat="39.4847" lon="-8.223618">
<time>2021-10-07T12:56:03Z</time>
</trkpt>
<trkpt lat="39.48473" lon="-8.223486">
<time>2021-10-07T12:56:04Z</time>
</trkpt>
<trkpt lat="39.484779" lon="-8.223367">
<time>2021-10-07T12:56:05Z</time>
</trkpt>
<trkpt lat="39.484845" lon="-8.223275">
<time>2021-10-07T12:56:06Z</time>
</trkpt>
<trkpt lat="39.48492" lon="-8.223199">
<time>2021-10-07T12:56:07Z</time>
</trkpt>
<trkpt lat="39.485091" lon="-8.223086">
<time>2021-10-07T12:56:09Z</time>
</trkpt>
<trkpt lat="39.485641" lon="-8.222825">
<time>2021-10-07T12:56:15Z</time>
</trkpt>
<trkpt lat="39.48592" lon="-8.222699">
<time>2021-10-07T12:56:18Z</time>
</trkpt>
<trkpt lat="39.485987" lon="-8.222626">
<time>2021-10-07T12:56:19Z</time>
</trkpt>
<trkpt lat="39.486024" lon="-8.222539">
<time>2021-10-07T12:56:20Z</time>
</trkpt>
<trkpt lat="39.486034" lon="-8.222448">
<time>2021-10-07T12:56:21Z</time>
</trkpt>
<trkpt lat="39.486031" lon="-8.222358">
<time>2021-10-07T12:56:22Z</time>
</trkpt>
<trkpt lat="39.48602" lon="-8.222173">
<time>2021-10-07T12:56:24Z</time>
</trkpt>
<trkpt lat="39.486025" lon="-8.222072">
<time>2021-10-07T12:56:25Z</time>
</trkpt>
<trkpt lat="39.486073" lon="-8.221731">
<time>2021-10-07T12:56:28Z</time>
</trkpt>
<trkpt lat="39.486111" lon="-8.221611">
<time>2021-10-07T12:56:29Z</time>
</trkpt>
<trkpt lat="39.486167" lon="-8.221507">
<time>2021-10-07T12:56:30Z</time>
</trkpt>
<trkpt lat="39.486303" lon="-8.221329">
<time>2021-10-07T12:56:32Z</time>
</trkpt>
<trkpt lat="39.486588" lon="-8.220837">
<time>2021-10-07T12:56:37Z</time>
</trkpt>
<trkpt lat="39.486863" lon="-8.220475">
<time>2021-10-07T12:56:41Z</time>
</trkpt>
<trkpt lat="39.487257" lon="-8.22012">
<time>2021-10-07T12:56:46Z</time>
</trkpt>
<trkpt lat="39.487465" lon="-8.2199">
<time>2021-10-07T12:56:49Z</time>
</trkpt>
<trkpt lat="39.487527" lon="-8.219815">
<time>2021-10-07T12:56:50Z</time>
</trkpt>
<trkpt lat="39.487792" lon="-8.219359">
<time>2021-10-07T12:56:55Z</time>
</trkpt>
<trkpt lat="39.487912" lon="-8.219147">
<time>2021-10-07T12:56:58Z</time>
</trkpt>
<trkpt lat="39.487912" lon="-8.219094">
<time>2021-10-07T12:56:59Z</time>
</trkpt>
<trkpt lat="39.487836" lon="-8.219053">
<time>2021-10-07T12:57:01Z</time>
</trkpt>
<trkpt lat="39.487779" lon="-8.219061">
<time>2021-10-07T12:57:02Z</time>
</trkpt>
<trkpt lat="39.487642" lon="-8.219099">
<time>2021-10-07T12:57:04Z</time>
</trkpt>
<trkpt lat="39.487217" lon="-8.219193">
<time>2021-10-07T12:57:09Z</time>
</trkpt>
<trkpt lat="39.486626" lon="-8.219411">
<time>2021-10-07T12:57:16Z</time>
</trkpt>
<trkpt lat="39.48626" lon="-8.219685">
<time>2021-10-07T12:57:21Z</time>
</trkpt>
<trkpt lat="39.485821" lon="-8.220138">
<time>2021-10-07T12:57:28Z</time>
</trkpt>
<trkpt lat="39.485486" lon="-8.220404">
<time>2021-10-07T12:57:33Z</time>
</trkpt>
<trkpt lat="39.485411" lon="-8.220432">
<time>2021-10-07T12:57:34Z</time>
</trkpt>
<trkpt lat="39.485331" lon="-8.220445">
<time>2021-10-07T12:57:35Z</time>
</trkpt>
<trkpt lat="39.485086" lon="-8.220432">
<time>2021-10-07T12:57:38Z</time>
</trkpt>
<trkpt lat="39.484507" lon="-8.220284">
<time>2021-10-07T12:57:45Z</time>
</trkpt>
<trkpt lat="39.48442" lon="-8.220263">
<time>2021-10-07T12:57:46Z</time>
</trkpt>
<trkpt lat="39.483929" lon="-8.220182">
<time>2021-10-07T12:57:51Z</time>
</trkpt>
<trkpt lat="39.483713" lon="-8.220228">
<time>2021-10-07T12:57:53Z</time>
</trkpt>
<trkpt lat="39.483607" lon="-8.220279">
<time>2021-10-07T12:57:54Z</time>
</trkpt>
<trkpt lat="39.483084" lon="-8.22063">
<time>2021-10-07T12:57:59Z</time>
</trkpt>
<trkpt lat="39.482603" lon="-8.221018">
<time>2021-10-07T12:58:04Z</time>
</trkpt>
<trkpt lat="39.482419" lon="-8.221167">
<time>2021-10-07T12:58:06Z</time>
</trkpt>
<trkpt lat="39.481894" lon="-8.221616">
<time>2021-10-07T12:58:12Z</time>
</trkpt>
<trkpt lat="39.481816" lon="-8.2217">
<time>2021-10-07T12:58:13Z</time>
</trkpt>
<trkpt lat="39.481471" lon="-8.222185">
<time>2021-10-07T12:58:18Z</time>
</trkpt>
<trkpt lat="39.481066" lon="-8.22279">
<time>2021-10-07T12:58:24Z</time>
</trkpt>
<trkpt lat="39.480911" lon="-8.222961">
<time>2021-10-07T12:58:26Z</time>
</trkpt>
<trkpt lat="39.480825" lon="-8.223027">
<time>2021-10-07T12:58:27Z</time>
</trkpt>
<trkpt lat="39.480732" lon="-8.223077">
<time>2021-10-07T12:58:28Z</time>
</trkpt>
<trkpt lat="39.480442" lon="-8.223193">
<time>2021-10-07T12:58:31Z</time>
</trkpt>
<trkpt lat="39.480072" lon="-8.22341">
<time>2021-10-07T12:58:35Z</time>
</trkpt>
<trkpt lat="39.479991" lon="-8.223493">
<time>2021-10-07T12:58:36Z</time>
</trkpt>
<trkpt lat="39.47992" lon="-8.223587">
<time>2021-10-07T12:58:37Z</time>
</trkpt>
<trkpt lat="39.479811" lon="-8.22378">
<time>2021-10-07T12:58:39Z</time>
</trkpt>
<trkpt lat="39.479732" lon="-8.22398">
<time>2021-10-07T12:58:41Z</time>
</trkpt>
<trkpt lat="39.479651" lon="-8.224143">
<time>2021-10-07T12:58:43Z</time>
</trkpt>
<trkpt lat="39.479529" lon="-8.224206">
<time>2021-10-07T12:58:45Z</time>
</trkpt>
<trkpt lat="39.47941" lon="-8.224148">
<time>2021-10-07T12:58:47Z</time>
</trkpt>
<trkpt lat="39.479185" lon="-8.223907">
<time>2021-10-07T12:58:51Z</time>
</trkpt>
<trkpt lat="39.479134" lon="-8.22383">
<time>2021-10-07T12:58:52Z</time>
</trkpt>
<trkpt lat="39.478864" lon="-8.223399">
<time>2021-10-07T12:58:57Z</time>
</trkpt>
<trkpt lat="39.478484" lon="-8.222889">
<time>2021-10-07T12:59:03Z</time>
</trkpt>
<trkpt lat="39.478183" lon="-8.222484">
<time>2021-10-07T12:59:08Z</time>
</trkpt>
<trkpt lat="39.478122" lon="-8.222421">
<time>2021-10-07T12:59:09Z</time>
</trkpt>
<trkpt lat="39.477932" lon="-8.222261">
<time>2021-10-07T12:59:12Z</time>
</trkpt>
<trkpt lat="39.477612" lon="-8.222057">
<time>2021-10-07T12:59:17Z</time>
</trkpt>
<trkpt lat="39.477567" lon="-8.222025">
<time>2021-10-07T12:59:18Z</time>
</trkpt>
<trkpt lat="39.477536" lon="-8.221951">
<time>2021-10-07T12:59:20Z</time>
</trkpt>
<trkpt lat="39.477553" lon="-8.221854">
<time>2021-10-07T12:59:23Z</time>
</trkpt>
<trkpt lat="39.477567" lon="-8.221825">
<time>2021-10-07T12:59:24Z</time>
</trkpt>
<trkpt lat="39.477594" lon="-8.221728">
<time>2021-10-07T12:59:26Z</time>
</trkpt>
<trkpt lat="39.477581" lon="-8.221664">
<time>2021-10-07T12:59:27Z</time>
</trkpt>
<trkpt lat="39.477512" lon="-8.221539">
<time>2021-10-07T12:59:29Z</time>
</trkpt>
<trkpt lat="39.477421" lon="-8.221424">
<time>2021-10-07T12:59:31Z</time>
</trkpt>
<trkpt lat="39.477262" lon="-8.221282">
<time>2021-10-07T12:59:34Z</time>
</trkpt>
<trkpt lat="39.477156" lon="-8.221197">
<time>2021-10-07T12:59:36Z</time>
</trkpt>
<trkpt lat="39.476969" lon="-8.221049">
<time>2021-10-07T12:59:40Z</time>
</trkpt>
<trkpt lat="39.476716" lon="-8.220902">
<time>2021-10-07T12:59:46Z</time>
</trkpt>
<trkpt lat="39.476672" lon="-8.220889">
<time>2021-10-07T12:59:47Z</time>
</trkpt>
<trkpt lat="39.476454" lon="-8.220836">
<time>2021-10-07T12:59:52Z</time>
</trkpt>
<trkpt lat="39.476241" lon="-8.220802">
<time>2021-10-07T12:59:57Z</time>
</trkpt>
<trkpt lat="39.47615" lon="-8.220764">
<time>2021-10-07T12:59:59Z</time>
</trkpt>
<trkpt lat="39.476109" lon="-8.220736">
<time>2021-10-07T13:00:00Z</time>
</trkpt>
<trkpt lat="39.476072" lon="-8.220704">
<time>2021-10-07T13:00:01Z</time>
</trkpt>
<trkpt lat="39.475956" lon="-8.220539">
<time>2021-10-07T13:00:05Z</time>
</trkpt>
<trkpt lat="39.47582" lon="-8.220285">
<time>2021-10-07T13:00:11Z</time>
</trkpt>
<trkpt lat="39.475659" lon="-8.219908">
<time>2021-10-07T13:00:19Z</time>
</trkpt>
<trkpt lat="39.475465" lon="-8.21959">
<time>2021-10-07T13:00:27Z</time>
</trkpt>
<trkpt lat="39.475296" lon="-8.219291">
<time>2021-10-07T13:00:35Z</time>
</trkpt>
<trkpt lat="39.475158" lon="-8.218965">
<time>2021-10-07T13:00:43Z</time>
</trkpt>
<trkpt lat="39.475046" lon="-8.218574">
<time>2021-10-07T13:00:50Z</time>
</trkpt>
<trkpt lat="39.474875" lon="-8.218065">
<time>2021-10-07T13:00:59Z</time>
</trkpt>
<trkpt lat="39.474762" lon="-8.21769">
<time>2021-10-07T13:01:06Z</time>
</trkpt>
<trkpt lat="39.474736" lon="-8.217582">
<time>2021-10-07T13:01:08Z</time>
</trkpt>
<trkpt lat="39.474688" lon="-8.217301">
<time>2021-10-07T13:01:13Z</time>
</trkpt>
<trkpt lat="39.474568" lon="-8.216871">
<time>2021-10-07T13:01:21Z</time>
</trkpt>
<trkpt lat="39.474602" lon="-8.216785">
<time>2021-10-07T13:01:23Z</time>
</trkpt>
<trkpt lat="39.474641" lon="-8.216761">
<time>2021-10-07T13:01:24Z</time>
</trkpt>
<trkpt lat="39.474731" lon="-8.216725">
<time>2021-10-07T13:01:26Z</time>
</trkpt>
</trkseg>
<name>Fabiano</name>
</trk>
</gpx>